sensor_id;sensor_type;location;lat;lon;timestamp;pressure;altitude;pressure_sealevel;temperature;humidity
9893;BME280;4985;49.092;8.542;2022-10-03T00:00:25;100151.16;;;17.46;49.56
9893;BME280;4985;49.092;8.542;2022-10-03T00:03:28;100148.84;;;17.43;49.59
9893;BME280;4985;49.092;8.542;2022-10-03T00:06:05;100154.19;;;17.43;49.63
9893;BME280;4985;49.092;8.542;2022-10-03T00:08:56;100145.56;;;17.41;49.66
9893;BME280;4985;49.092;8.542;2022-10-03T00:11:38;100141.87;;;17.42;49.65
9893;BME280;4985;49.092;8.542;2022-10-03T00:14:12;100143.53;;;17.43;49.63
9893;BME280;4985;49.092;8.542;2022-10-03T00:16:48;100144.34;;;17.44;49.60
9893;BME280;4985;49.092;8.542;2022-10-03T00:19:28;100143.91;;;17.40;49.64
9893;BME280;4985;49.092;8.542;2022-10-03T00:22:11;100158.69;;;17.43;49.63
9893;BME280;4985;49.092;8.542;2022-10-03T00:24:52;100170.97;;;17.44;49.63
9893;BME280;4985;49.092;8.542;2022-10-03T00:27:27;100169.53;;;17.41;49.65
9893;BME280;4985;49.092;8.542;2022-10-03T00:30:03;100172.19;;;17.41;49.67
9893;BME280;4985;49.092;8.542;2022-10-03T00:32:54;100173.00;;;17.42;49.66
9893;BME280;4985;49.092;8.542;2022-10-03T00:35:57;100179.16;;;17.42;49.66
9893;BME280;4985;49.092;8.542;2022-10-03T00:44:40;100175.47;;;17.43;49.61
9893;BME280;4985;49.092;8.542;2022-10-03T00:50:52;100186.13;;;17.43;49.64
9893;BME280;4985;49.092;8.542;2022-10-03T00:53:32;100193.13;;;17.44;49.61
9893;BME280;4985;49.092;8.542;2022-10-03T00:56:12;100193.28;;;17.43;49.61
9893;BME280;4985;49.092;8.542;2022-10-03T00:59:02;100183.84;;;17.40;49.58
9893;BME280;4985;49.092;8.542;2022-10-03T01:01:36;100187.81;;;17.44;49.58
9893;BME280;4985;49.092;8.542;2022-10-03T01:07:23;100192.28;;;17.44;49.59
9893;BME280;4985;49.092;8.542;2022-10-03T01:10:00;100188.78;;;17.43;49.58
9893;BME280;4985;49.092;8.542;2022-10-03T01:12:49;100194.09;;;17.43;49.59
9893;BME280;4985;49.092;8.542;2022-10-03T01:15:28;100196.78;;;17.43;49.58
9893;BME280;4985;49.092;8.542;2022-10-03T01:18:20;100201.94;;;17.45;49.57
9893;BME280;4985;49.092;8.542;2022-10-03T01:20:59;100200.09;;;17.45;49.55
9893;BME280;4985;49.092;8.542;2022-10-03T01:23:59;100210.75;;;17.45;49.54
9893;BME280;4985;49.092;8.542;2022-10-03T01:26:42;100206.25;;;17.46;49.54
9893;BME280;4985;49.092;8.542;2022-10-03T01:29:19;100207.25;;;17.45;49.54
9893;BME280;4985;49.092;8.542;2022-10-03T01:32:10;100209.09;;;17.44;49.54
9893;BME280;4985;49.092;8.542;2022-10-03T01:34:43;100212.94;;;17.42;49.55
9893;BME280;4985;49.092;8.542;2022-10-03T01:37:17;100213.41;;;17.45;49.54
9893;BME280;4985;49.092;8.542;2022-10-03T01:39:51;100225.06;;;17.44;49.55
9893;BME280;4985;49.092;8.542;2022-10-03T01:42:29;100221.56;;;17.44;49.56
9893;BME280;4985;49.092;8.542;2022-10-03T01:45:07;100219.75;;;17.44;49.55
9893;BME280;4985;49.092;8.542;2022-10-03T01:47:43;100225.06;;;17.44;49.55
9893;BME280;4985;49.092;8.542;2022-10-03T01:50:20;100227.88;;;17.43;49.58
9893;BME280;4985;49.092;8.542;2022-10-03T01:52:53;100229.53;;;17.44;49.56
9893;BME280;4985;49.092;8.542;2022-10-03T01:55:32;100229.53;;;17.44;49.57
9893;BME280;4985;49.092;8.542;2022-10-03T01:58:04;100233.22;;;17.43;49.56
9893;BME280;4985;49.092;8.542;2022-10-03T02:00:41;100228.91;;;17.42;49.59
9893;BME280;4985;49.092;8.542;2022-10-03T02:03:15;100231.56;;;17.42;49.60
9893;BME280;4985;49.092;8.542;2022-10-03T02:05:52;100227.06;;;17.42;49.58
9893;BME280;4985;49.092;8.542;2022-10-03T02:08:28;100231.38;;;17.43;49.57
9893;BME280;4985;49.092;8.542;2022-10-03T02:11:01;100223.37;;;17.43;49.56
9893;BME280;4985;49.092;8.542;2022-10-03T02:13:36;100222.41;;;17.44;49.54
9893;BME280;4985;49.092;8.542;2022-10-03T02:16:08;100226.06;;;17.43;49.54
9893;BME280;4985;49.092;8.542;2022-10-03T02:18:39;100225.06;;;17.44;49.53
9893;BME280;4985;49.092;8.542;2022-10-03T02:21:14;100225.41;;;17.41;49.52
9893;BME280;4985;49.092;8.542;2022-10-03T02:23:44;100228.56;;;17.45;49.51
9893;BME280;4985;49.092;8.542;2022-10-03T02:29:27;100227.06;;;17.42;49.54
9893;BME280;4985;49.092;8.542;2022-10-03T02:32:13;100234.03;;;17.43;49.54
9893;BME280;4985;49.092;8.542;2022-10-03T02:35:05;100236.53;;;17.45;49.51
9893;BME280;4985;49.092;8.542;2022-10-03T02:37:50;100240.19;;;17.44;49.50
9893;BME280;4985;49.092;8.542;2022-10-03T02:40:48;100240.19;;;17.44;49.50
9893;BME280;4985;49.092;8.542;2022-10-03T02:44:00;100235.72;;;17.44;49.48
9893;BME280;4985;49.092;8.542;2022-10-03T02:47:08;100233.69;;;17.46;49.45
9893;BME280;4985;49.092;8.542;2022-10-03T02:50:06;100226.72;;;17.45;49.47
9893;BME280;4985;49.092;8.542;2022-10-03T02:53:20;100231.22;;;17.45;49.45
9893;BME280;4985;49.092;8.542;2022-10-03T02:59:21;100227.72;;;17.44;49.46
9893;BME280;4985;49.092;8.542;2022-10-03T03:02:13;100228.72;;;17.43;49.47
9893;BME280;4985;49.092;8.542;2022-10-03T03:05:28;100223.37;;;17.43;49.49
9893;BME280;4985;49.092;8.542;2022-10-03T03:08:17;100223.37;;;17.43;49.49
9893;BME280;4985;49.092;8.542;2022-10-03T03:11:06;100224.41;;;17.42;49.51
9893;BME280;4985;49.092;8.542;2022-10-03T03:14:09;100223.56;;;17.42;49.51
9893;BME280;4985;49.092;8.542;2022-10-03T03:16:54;100228.91;;;17.42;49.51
9893;BME280;4985;49.092;8.542;2022-10-03T03:19:44;100221.75;;;17.42;49.53
9893;BME280;4985;49.092;8.542;2022-10-03T03:22:35;100221.75;;;17.42;49.51
9893;BME280;4985;49.092;8.542;2022-10-03T03:25:24;100227.06;;;17.42;49.50
9893;BME280;4985;49.092;8.542;2022-10-03T03:28:04;100225.22;;;17.43;49.50
9893;BME280;4985;49.092;8.542;2022-10-03T03:30:43;100227.06;;;17.42;49.51
9893;BME280;4985;49.092;8.542;2022-10-03T03:33:21;100225.41;;;17.41;49.51
9893;BME280;4985;49.092;8.542;2022-10-03T03:35:59;100228.06;;;17.41;49.52
9893;BME280;4985;49.092;8.542;2022-10-03T03:38:33;100232.38;;;17.42;49.50
9893;BME280;4985;49.092;8.542;2022-10-03T03:41:29;100240.37;;;17.42;49.51
9893;BME280;4985;49.092;8.542;2022-10-03T03:44:24;100236.06;;;17.41;49.50
9893;BME280;4985;49.092;8.542;2022-10-03T03:47:11;100242.22;;;17.42;49.51
9893;BME280;4985;49.092;8.542;2022-10-03T03:49:54;100244.88;;;17.42;49.52
9893;BME280;4985;49.092;8.542;2022-10-03T03:52:36;100254.69;;;17.41;49.51
9893;BME280;4985;49.092;8.542;2022-10-03T03:55:22;100251.22;;;17.41;49.52
9893;BME280;4985;49.092;8.542;2022-10-03T03:58:12;100255.72;;;17.40;49.53
9893;BME280;4985;49.092;8.542;2022-10-03T04:00:57;100250.37;;;17.40;49.54
9893;BME280;4985;49.092;8.542;2022-10-03T04:03:42;100241.56;;;17.40;49.52
9893;BME280;4985;49.092;8.542;2022-10-03T04:06:30;100244.03;;;17.41;49.51
9893;BME280;4985;49.092;8.542;2022-10-03T04:09:19;100238.72;;;17.41;49.50
9893;BME280;4985;49.092;8.542;2022-10-03T04:11:56;100235.25;;;17.41;49.50
9893;BME280;4985;49.092;8.542;2022-10-03T04:14:54;100243.22;;;17.41;49.49
9893;BME280;4985;49.092;8.542;2022-10-03T04:17:35;100245.06;;;17.40;49.51
9893;BME280;4985;49.092;8.542;2022-10-03T04:20:37;100245.06;;;17.40;49.50
9893;BME280;4985;49.092;8.542;2022-10-03T04:23:21;100248.72;;;17.39;49.51
9893;BME280;4985;49.092;8.542;2022-10-03T04:25:59;100263.69;;;17.40;49.50
9893;BME280;4985;49.092;8.542;2022-10-03T04:31:33;100259.38;;;17.39;49.53
9893;BME280;4985;49.092;8.542;2022-10-03T04:34:19;100258.75;;;17.37;49.55
9893;BME280;4985;49.092;8.542;2022-10-03T04:37:19;100257.72;;;17.38;49.53
9893;BME280;4985;49.092;8.542;2022-10-03T04:39:56;100258.56;;;17.39;49.53
9893;BME280;4985;49.092;8.542;2022-10-03T04:42:37;100260.41;;;17.38;49.53
9893;BME280;4985;49.092;8.542;2022-10-03T04:45:17;100267.56;;;17.38;49.52
9893;BME280;4985;49.092;8.542;2022-10-03T04:47:58;100268.38;;;17.38;49.52
9893;BME280;4985;49.092;8.542;2022-10-03T04:50:36;100271.22;;;17.37;49.54
9893;BME280;4985;49.092;8.542;2022-10-03T04:53:21;100270.22;;;17.38;49.52
9893;BME280;4985;49.092;8.542;2022-10-03T04:55:53;100271.03;;;17.38;49.51
9893;BME280;4985;49.092;8.542;2022-10-03T04:58:31;100271.03;;;17.38;49.52
9893;BME280;4985;49.092;8.542;2022-10-03T05:01:07;100272.88;;;17.38;49.53
9893;BME280;4985;49.092;8.542;2022-10-03T05:03:48;100268.38;;;17.38;49.53
9893;BME280;4985;49.092;8.542;2022-10-03T05:06:29;100266.72;;;17.37;49.55
9893;BME280;4985;49.092;8.542;2022-10-03T05:09:01;100271.22;;;17.37;49.53
9893;BME280;4985;49.092;8.542;2022-10-03T05:11:39;100266.72;;;17.37;49.52
9893;BME280;4985;49.092;8.542;2022-10-03T05:14:28;100266.72;;;17.37;49.54
9893;BME280;4985;49.092;8.542;2022-10-03T05:17:10;100263.25;;;17.37;49.55
9893;BME280;4985;49.092;8.542;2022-10-03T05:19:56;100270.41;;;17.36;49.55
9893;BME280;4985;49.092;8.542;2022-10-03T05:22:39;100271.03;;;17.38;49.52
9893;BME280;4985;49.092;8.542;2022-10-03T05:25:32;100282.69;;;17.37;49.52
9893;BME280;4985;49.092;8.542;2022-10-03T05:28:14;100282.69;;;17.37;49.53
9893;BME280;4985;49.092;8.542;2022-10-03T05:30:52;100293.34;;;17.37;49.52
9893;BME280;4985;49.092;8.542;2022-10-03T05:33:28;100297.03;;;17.36;49.54
9893;BME280;4985;49.092;8.542;2022-10-03T05:36:07;100304.19;;;17.36;49.54
9893;BME280;4985;49.092;8.542;2022-10-03T05:38:58;100311.34;;;17.35;49.57
9893;BME280;4985;49.092;8.542;2022-10-03T05:41:29;100324.47;;;17.37;49.55
9893;BME280;4985;49.092;8.542;2022-10-03T05:44:02;100320.97;;;17.36;49.56
9893;BME280;4985;49.092;8.542;2022-10-03T05:46:39;100325.47;;;17.36;49.54
9893;BME280;4985;49.092;8.542;2022-10-03T05:49:24;100318.31;;;17.36;49.53
9893;BME280;4985;49.092;8.542;2022-10-03T05:52:13;100317.31;;;17.37;49.51
9893;BME280;4985;49.092;8.542;2022-10-03T05:54:57;100309.31;;;17.37;49.51
9893;BME280;4985;49.092;8.542;2022-10-03T05:58:07;100307.66;;;17.36;49.52
9893;BME280;4985;49.092;8.542;2022-10-03T06:00:57;100315.66;;;17.36;49.53
9893;BME280;4985;49.092;8.542;2022-10-03T06:03:55;100317.47;;;17.36;49.53
9893;BME280;4985;49.092;8.542;2022-10-03T06:06:32;100318.50;;;17.35;49.55
9893;BME280;4985;49.092;8.542;2022-10-03T06:09:29;100322.81;;;17.36;49.53
9893;BME280;4985;49.092;8.542;2022-10-03T06:12:03;100322.16;;;17.34;49.54
9893;BME280;4985;49.092;8.542;2022-10-03T06:14:37;100321.97;;;17.35;49.54
9893;BME280;4985;49.092;8.542;2022-10-03T06:17:27;100328.13;;;17.36;49.53
9893;BME280;4985;49.092;8.542;2022-10-03T06:20:14;100343.28;;;17.35;49.53
9893;BME280;4985;49.092;8.542;2022-10-03T06:23:04;100336.94;;;17.36;49.52
9893;BME280;4985;49.092;8.542;2022-10-03T06:29:12;100333.34;;;17.29;49.54
9893;BME280;4985;49.092;8.542;2022-10-03T06:35:31;100360.06;;;17.36;49.51
9893;BME280;4985;49.092;8.542;2022-10-03T06:41:51;100363.75;;;17.35;49.54
9893;BME280;4985;49.092;8.542;2022-10-03T06:44:36;100369.06;;;17.35;49.54
9893;BME280;4985;49.092;8.542;2022-10-03T06:47:40;100369.06;;;17.35;49.55
9893;BME280;4985;49.092;8.542;2022-10-03T06:50:23;100373.56;;;17.34;49.54
9893;BME280;4985;49.092;8.542;2022-10-03T06:53:10;100377.88;;;17.35;49.56
9893;BME280;4985;49.092;8.542;2022-10-03T06:59:02;100384.22;;;17.34;49.54
9893;BME280;4985;49.092;8.542;2022-10-03T07:11:06;100391.19;;;17.35;49.54
9893;BME280;4985;49.092;8.542;2022-10-03T07:14:00;100397.53;;;17.34;49.54
9893;BME280;4985;49.092;8.542;2022-10-03T07:17:02;100406.50;;;17.33;49.59
9893;BME280;4985;49.092;8.542;2022-10-03T07:19:49;100391.53;;;17.32;49.59
9893;BME280;4985;49.092;8.542;2022-10-03T07:22:48;100395.88;;;17.33;49.59
9893;BME280;4985;49.092;8.542;2022-10-03T07:31:42;100395.88;;;17.33;49.58
9893;BME280;4985;49.092;8.542;2022-10-03T07:34:38;100391.53;;;17.32;49.58
9893;BME280;4985;49.092;8.542;2022-10-03T07:37:40;100393.19;;;17.33;49.60
9893;BME280;4985;49.092;8.542;2022-10-03T07:40:54;100394.03;;;17.34;49.60
9893;BME280;4985;49.092;8.542;2022-10-03T07:43:58;100400.19;;;17.34;49.58
9893;BME280;4985;49.092;8.542;2022-10-03T07:47:05;100402.84;;;17.34;49.58
9893;BME280;4985;49.092;8.542;2022-10-03T07:49:48;100410.81;;;17.34;49.57
9893;BME280;4985;49.092;8.542;2022-10-03T07:55:26;100421.47;;;17.34;49.56
9893;BME280;4985;49.092;8.542;2022-10-03T07:58:25;100422.31;;;17.35;49.57
9893;BME280;4985;49.092;8.542;2022-10-03T08:01:23;100427.44;;;17.36;49.54
9893;BME280;4985;49.092;8.542;2022-10-03T08:04:19;100432.56;;;17.38;49.49
9893;BME280;4985;49.092;8.542;2022-10-03T08:07:00;100429.09;;;17.37;49.47
9893;BME280;4985;49.092;8.542;2022-10-03T08:09:42;100431.75;;;17.37;49.49
9893;BME280;4985;49.092;8.542;2022-10-03T08:12:34;100433.78;;;17.35;49.53
9893;BME280;4985;49.092;8.542;2022-10-03T08:15:09;100432.12;;;17.34;49.54
9893;BME280;4985;49.092;8.542;2022-10-03T08:17:59;100436.44;;;17.35;49.56
9893;BME280;4985;49.092;8.542;2022-10-03T08:20:38;100432.75;;;17.36;49.56
9893;BME280;4985;49.092;8.542;2022-10-03T08:26:17;100429.28;;;17.36;49.58
9893;BME280;4985;49.092;8.542;2022-10-03T08:32:45;100436.44;;;17.35;49.61
9893;BME280;4985;49.092;8.542;2022-10-03T08:35:23;100439.09;;;17.35;49.60
9893;BME280;4985;49.092;8.542;2022-10-03T08:44:49;100426.63;;;17.36;49.64
9893;BME280;4985;49.092;8.542;2022-10-03T08:47:51;100436.44;;;17.35;49.65
9893;BME280;4985;49.092;8.542;2022-10-03T08:54:01;100438.09;;;17.36;49.67
9893;BME280;4985;49.092;8.542;2022-10-03T08:56:45;100434.41;;;17.37;49.68
9893;BME280;4985;49.092;8.542;2022-10-03T09:14:38;100424.78;;;17.36;49.76
9893;BME280;4985;49.092;8.542;2022-10-03T09:23:24;100424.97;;;17.35;49.79
9893;BME280;4985;49.092;8.542;2022-10-03T09:26:35;100423.75;;;17.37;49.78
9893;BME280;4985;49.092;8.542;2022-10-03T09:29:24;100422.75;;;17.38;49.73
9893;BME280;4985;49.092;8.542;2022-10-03T09:35:25;100423.59;;;17.39;49.74
9893;BME280;4985;49.092;8.542;2022-10-03T09:38:29;100422.75;;;17.38;49.79
9893;BME280;4985;49.092;8.542;2022-10-03T09:41:36;100418.44;;;17.37;49.78
9893;BME280;4985;49.092;8.542;2022-10-03T09:44:42;100417.44;;;17.38;49.81
9893;BME280;4985;49.092;8.542;2022-10-03T09:47:33;100421.09;;;17.37;49.84
9893;BME280;4985;49.092;8.542;2022-10-03T09:53:53;100417.44;;;17.38;49.86
9893;BME280;4985;49.092;8.542;2022-10-03T09:56:57;100422.75;;;17.38;49.86
9893;BME280;4985;49.092;8.542;2022-10-03T09:59:43;100421.75;;;17.39;49.88
9893;BME280;4985;49.092;8.542;2022-10-03T10:02:33;100420.09;;;17.38;49.86
9893;BME280;4985;49.092;8.542;2022-10-03T10:05:22;100417.88;;;17.42;49.82
9893;BME280;4985;49.092;8.542;2022-10-03T10:08:07;100418.72;;;17.42;49.82
9893;BME280;4985;49.092;8.542;2022-10-03T10:11:05;100418.72;;;17.42;49.84
9893;BME280;4985;49.092;8.542;2022-10-03T10:14:14;100423.22;;;17.42;49.85
9893;BME280;4985;49.092;8.542;2022-10-03T10:20:03;100424.03;;;17.42;49.85
9893;BME280;4985;49.092;8.542;2022-10-03T10:23:18;100426.69;;;17.42;49.85
9893;BME280;4985;49.092;8.542;2022-10-03T10:29:35;100421.03;;;17.45;49.79
9893;BME280;4985;49.092;8.542;2022-10-03T10:38:22;100431.84;;;17.44;49.86
9893;BME280;4985;49.092;8.542;2022-10-03T10:47:10;100428.03;;;17.46;49.82
9893;BME280;4985;49.092;8.542;2022-10-03T10:50:25;100426.00;;;17.49;49.80
9893;BME280;4985;49.092;8.542;2022-10-03T11:02:58;100408.66;;;17.53;49.69
9893;BME280;4985;49.092;8.542;2022-10-03T11:05:40;100410.28;;;17.54;49.67
9893;BME280;4985;49.092;8.542;2022-10-03T11:08:40;100409.47;;;17.53;49.68
9893;BME280;4985;49.092;8.542;2022-10-03T11:11:43;100422.59;;;17.55;49.67
9893;BME280;4985;49.092;8.542;2022-10-03T11:14:50;100407.63;;;17.54;49.65
9893;BME280;4985;49.092;8.542;2022-10-03T11:17:45;100406.63;;;17.55;49.68
9893;BME280;4985;49.092;8.542;2022-10-03T11:20:58;100413.97;;;17.53;49.70
9893;BME280;4985;49.092;8.542;2022-10-03T11:23:59;100416.44;;;17.54;49.71
9893;BME280;4985;49.092;8.542;2022-10-03T11:26:58;100409.47;;;17.53;49.72
9893;BME280;4985;49.092;8.542;2022-10-03T11:33:07;100409.47;;;17.53;49.75
9893;BME280;4985;49.092;8.542;2022-10-03T11:36:14;100409.47;;;17.53;49.74
9893;BME280;4985;49.092;8.542;2022-10-03T11:38:56;100411.94;;;17.55;49.73
9893;BME280;4985;49.092;8.542;2022-10-03T11:41:38;100403.97;;;17.55;49.72
9893;BME280;4985;49.092;8.542;2022-10-03T11:44:24;100411.94;;;17.55;49.73
9893;BME280;4985;49.092;8.542;2022-10-03T11:47:10;100401.31;;;17.55;49.74
9893;BME280;4985;49.092;8.542;2022-10-03T11:50:00;100400.47;;;17.54;49.75
9893;BME280;4985;49.092;8.542;2022-10-03T11:52:36;100398.00;;;17.53;49.74
9893;BME280;4985;49.092;8.542;2022-10-03T11:55:23;100400.97;;;17.58;49.74
9893;BME280;4985;49.092;8.542;2022-10-03T11:58:01;100386.34;;;17.54;49.75
9893;BME280;4985;49.092;8.542;2022-10-03T12:00:34;100386.63;;;17.59;49.70
9893;BME280;4985;49.092;8.542;2022-10-03T12:03:10;100383.97;;;17.59;49.69
9893;BME280;4985;49.092;8.542;2022-10-03T12:05:47;100387.47;;;17.59;49.73
9893;BME280;4985;49.092;8.542;2022-10-03T12:08:25;100381.31;;;17.59;49.77
9893;BME280;4985;49.092;8.542;2022-10-03T12:11:16;100381.31;;;17.59;49.78
9893;BME280;4985;49.092;8.542;2022-10-03T12:16:55;100368.63;;;17.61;49.80
9893;BME280;4985;49.092;8.542;2022-10-03T12:19:29;100369.47;;;17.61;49.79
9893;BME280;4985;49.092;8.542;2022-10-03T12:22:07;100366.78;;;17.61;49.79
9893;BME280;4985;49.092;8.542;2022-10-03T12:24:41;100361.28;;;17.63;49.79
9893;BME280;4985;49.092;8.542;2022-10-03T12:27:17;100361.09;;;17.64;49.77
9893;BME280;4985;49.092;8.542;2022-10-03T12:29:53;100356.59;;;17.65;49.76
9893;BME280;4985;49.092;8.542;2022-10-03T12:32:28;100356.41;;;17.66;49.73
9893;BME280;4985;49.092;8.542;2022-10-03T12:35:04;100348.25;;;17.68;49.72
9893;BME280;4985;49.092;8.542;2022-10-03T12:37:43;100353.59;;;17.68;49.70
9893;BME280;4985;49.092;8.542;2022-10-03T12:40:20;100351.59;;;17.70;49.69
9893;BME280;4985;49.092;8.542;2022-10-03T12:42:59;100352.63;;;17.69;49.70
9893;BME280;4985;49.092;8.542;2022-10-03T12:45:31;100356.94;;;17.70;49.69
9893;BME280;4985;49.092;8.542;2022-10-03T12:48:10;100349.75;;;17.70;49.70
9893;BME280;4985;49.092;8.542;2022-10-03T12:50:45;100354.06;;;17.71;49.68
9893;BME280;4985;49.092;8.542;2022-10-03T12:53:27;100353.06;;;17.72;49.67
9893;BME280;4985;49.092;8.542;2022-10-03T12:58:55;100346.72;;;17.73;49.65
9893;BME280;4985;49.092;8.542;2022-10-03T13:01:37;100343.03;;;17.74;49.64
9893;BME280;4985;49.092;8.542;2022-10-03T13:04:20;100344.69;;;17.75;49.63
9893;BME280;4985;49.092;8.542;2022-10-03T13:06:59;100342.66;;;17.78;49.62
9893;BME280;4985;49.092;8.542;2022-10-03T13:10:02;100341.84;;;17.77;49.61
9893;BME280;4985;49.092;8.542;2022-10-03T13:12:41;100339.19;;;17.77;49.62
9893;BME280;4985;49.092;8.542;2022-10-03T13:15:52;100339.19;;;17.77;49.63
9893;BME280;4985;49.092;8.542;2022-10-03T13:18:40;100332.03;;;17.78;49.63
9893;BME280;4985;49.092;8.542;2022-10-03T13:21:13;100331.87;;;17.79;49.62
9893;BME280;4985;49.092;8.542;2022-10-03T13:23:45;100331.03;;;17.79;49.64
9893;BME280;4985;49.092;8.542;2022-10-03T13:26:18;100323.88;;;17.79;49.66
9893;BME280;4985;49.092;8.542;2022-10-03T13:29:01;100327.34;;;17.80;49.67
9893;BME280;4985;49.092;8.542;2022-10-03T13:31:47;100331.03;;;17.79;49.65
9893;BME280;4985;49.092;8.542;2022-10-03T13:34:22;100330.84;;;17.80;49.66
9893;BME280;4985;49.092;8.542;2022-10-03T13:36:53;100322.84;;;17.80;49.66
9893;BME280;4985;49.092;8.542;2022-10-03T13:39:23;100324.50;;;17.81;49.67
9893;BME280;4985;49.092;8.542;2022-10-03T13:42:03;100325.53;;;17.80;49.70
9893;BME280;4985;49.092;8.542;2022-10-03T13:44:39;100318.53;;;17.79;49.71
9893;BME280;4985;49.092;8.542;2022-10-03T13:47:28;100317.72;;;17.79;49.72
9893;BME280;4985;49.092;8.542;2022-10-03T13:49:57;100316.50;;;17.81;49.71
9893;BME280;4985;49.092;8.542;2022-10-03T13:52:32;100314.87;;;17.80;49.72
9893;BME280;4985;49.092;8.542;2022-10-03T13:55:19;100299.72;;;17.81;49.72
9893;BME280;4985;49.092;8.542;2022-10-03T13:58:02;100305.88;;;17.81;49.71
9893;BME280;4985;49.092;8.542;2022-10-03T14:00:39;100298.50;;;17.83;49.68
9893;BME280;4985;49.092;8.542;2022-10-03T14:03:20;100298.25;;;17.78;49.67
9893;BME280;4985;49.092;8.542;2022-10-03T14:06:05;100300.16;;;17.84;49.65
9893;BME280;4985;49.092;8.542;2022-10-03T14:09:01;100304.47;;;17.85;49.64
9893;BME280;4985;49.092;8.542;2022-10-03T14:11:38;100308.78;;;17.86;49.63
9893;BME280;4985;49.092;8.542;2022-10-03T14:14:26;100299.78;;;17.87;49.62
9893;BME280;4985;49.092;8.542;2022-10-03T14:17:05;100301.44;;;17.88;49.61
9893;BME280;4985;49.092;8.542;2022-10-03T14:19:39;100303.94;;;17.90;49.59
9893;BME280;4985;49.092;8.542;2022-10-03T14:25:16;100294.09;;;17.90;49.59
9893;BME280;4985;49.092;8.542;2022-10-03T14:27:49;100289.59;;;17.91;49.59
9893;BME280;4985;49.092;8.542;2022-10-03T14:30:20;100286.75;;;17.92;49.57
9893;BME280;4985;49.092;8.542;2022-10-03T14:32:58;100287.56;;;17.93;49.59
9893;BME280;4985;49.092;8.542;2022-10-03T14:35:35;100288.37;;;17.93;49.60
9893;BME280;4985;49.092;8.542;2022-10-03T14:38:13;100285.53;;;17.95;49.57
9893;BME280;4985;49.092;8.542;2022-10-03T14:40:47;100285.53;;;17.95;49.56
9893;BME280;4985;49.092;8.542;2022-10-03T14:43:27;100287.19;;;17.96;49.56
9893;BME280;4985;49.092;8.542;2022-10-03T14:45:58;100290.47;;;17.98;49.55
9893;BME280;4985;49.092;8.542;2022-10-03T14:48:29;100287.81;;;17.98;49.53
9893;BME280;4985;49.092;8.542;2022-10-03T14:51:05;100278.63;;;18.00;49.52
9893;BME280;4985;49.092;8.542;2022-10-03T14:53:36;100274.97;;;18.01;49.49
9893;BME280;4985;49.092;8.542;2022-10-03T14:56:06;100278.63;;;18.00;49.52
9893;BME280;4985;49.092;8.542;2022-10-03T14:58:37;100274.97;;;18.01;49.50
9893;BME280;4985;49.092;8.542;2022-10-03T15:01:13;100275.78;;;18.02;49.50
9893;BME280;4985;49.092;8.542;2022-10-03T15:03:52;100267.63;;;18.03;49.52
9893;BME280;4985;49.092;8.542;2022-10-03T15:06:34;100266.78;;;18.03;49.51
9893;BME280;4985;49.092;8.542;2022-10-03T15:09:04;100276.44;;;18.04;49.52
9893;BME280;4985;49.092;8.542;2022-10-03T15:11:35;100288.72;;;18.05;49.53
9893;BME280;4985;49.092;8.542;2022-10-03T15:14:10;100280.75;;;18.05;49.52
9893;BME280;4985;49.092;8.542;2022-10-03T15:16:39;100276.25;;;18.06;49.51
9893;BME280;4985;49.092;8.542;2022-10-03T15:19:14;100282.38;;;18.06;49.51
9893;BME280;4985;49.092;8.542;2022-10-03T15:21:43;100275.22;;;18.07;49.51
9893;BME280;4985;49.092;8.542;2022-10-03T15:24:17;100279.53;;;18.08;49.48
9893;BME280;4985;49.092;8.542;2022-10-03T15:26:49;100270.53;;;18.09;49.46
9893;BME280;4985;49.092;8.542;2022-10-03T15:29:18;100270.34;;;18.10;49.43
9893;BME280;4985;49.092;8.542;2022-10-03T15:31:46;100271.16;;;18.11;49.39
9893;BME280;4985;49.092;8.542;2022-10-03T15:34:17;100273.00;;;18.10;49.40
9893;BME280;4985;49.092;8.542;2022-10-03T15:36:48;100264.81;;;18.12;49.40
9893;BME280;4985;49.092;8.542;2022-10-03T15:39:19;100258.50;;;18.13;49.44
9893;BME280;4985;49.092;8.542;2022-10-03T15:41:50;100266.50;;;18.13;49.52
9893;BME280;4985;49.092;8.542;2022-10-03T15:44:21;100267.31;;;18.13;49.54
9893;BME280;4985;49.092;8.542;2022-10-03T15:46:55;100269.78;;;18.15;49.51
9893;BME280;4985;49.092;8.542;2022-10-03T15:49:32;100268.13;;;18.14;49.49
9893;BME280;4985;49.092;8.542;2022-10-03T15:52:09;100266.50;;;18.13;49.51
9893;BME280;4985;49.092;8.542;2022-10-03T15:54:41;100267.31;;;18.13;49.52
9893;BME280;4985;49.092;8.542;2022-10-03T15:57:16;100267.31;;;18.13;49.50
9893;BME280;4985;49.092;8.542;2022-10-03T15:59:49;100257.66;;;18.12;49.47
9893;BME280;4985;49.092;8.542;2022-10-03T16:02:18;100257.47;;;18.14;49.48
9893;BME280;4985;49.092;8.542;2022-10-03T16:04:52;100262.81;;;18.14;49.47
9893;BME280;4985;49.092;8.542;2022-10-03T16:07:27;100252.16;;;18.14;49.47
9893;BME280;4985;49.092;8.542;2022-10-03T16:10:08;100257.47;;;18.14;49.46
9893;BME280;4985;49.092;8.542;2022-10-03T16:13:05;100250.31;;;18.14;49.46
9893;BME280;4985;49.092;8.542;2022-10-03T16:15:49;100247.44;;;18.16;49.42
9893;BME280;4985;49.092;8.542;2022-10-03T16:18:47;100245.81;;;18.15;49.40
9893;BME280;4985;49.092;8.542;2022-10-03T16:24:17;100254.63;;;18.15;49.38
9893;BME280;4985;49.092;8.542;2022-10-03T16:26:50;100252.16;;;18.14;49.41
9893;BME280;4985;49.092;8.542;2022-10-03T16:29:19;100258.94;;;18.16;49.36
9893;BME280;4985;49.092;8.542;2022-10-03T16:31:51;100250.75;;;18.18;49.35
9893;BME280;4985;49.092;8.542;2022-10-03T16:34:21;100255.25;;;18.17;49.36
9893;BME280;4985;49.092;8.542;2022-10-03T16:36:52;100267.75;;;18.17;49.35
9893;BME280;4985;49.092;8.542;2022-10-03T16:39:22;100265.72;;;18.19;49.33
9893;BME280;4985;49.092;8.542;2022-10-03T16:41:51;100258.75;;;18.18;49.32
9893;BME280;4985;49.092;8.542;2022-10-03T16:44:23;100258.75;;;18.18;49.31
9893;BME280;4985;49.092;8.542;2022-10-03T16:46:51;100254.03;;;18.20;49.30
9893;BME280;4985;49.092;8.542;2022-10-03T16:49:32;100251.38;;;18.20;49.27
9893;BME280;4985;49.092;8.542;2022-10-03T16:52:21;100245.59;;;18.16;49.26
9893;BME280;4985;49.092;8.542;2022-10-03T16:54:57;100245.22;;;18.19;49.26
9893;BME280;4985;49.092;8.542;2022-10-03T16:57:29;100249.72;;;18.19;49.24